Sao Bento do Norte, Brazil
Current Conditions -  °F | °C
As of 1:00 PM on Thursday 18 Dec 2014 (Local Time) from SBNT Reporting Station
Scattered Clouds Scattered Clouds  
Wind Chill: 86°   Ceiling: Unl
Heat Index: 87°   Visibility: 6mi
Dew Point: 64°   Wind: 15mph
Humidity: 48%   Direction: 80°E
Pressure: 29.88"   Gusts: NA
Location:  5.07°S, 36.04°W
Report Text: SBNT 181600Z 08013KT 9999 SCT020 SCT100 30/18 Q1012
Loading
Personal Weather Stations






























Interactive Weather Map New forecast layout! Learn more

10-Day Weather Forecast

Advertisements
Track Severe Weather on mobile